Time;durP1;ratioP1;P1;durP2;ratioP2;P2;SDS_P1;SDS_P2;PMS_P1;PMS_P2;Temp;Humidity;BMP_temperature;BMP_pressure;BME280_temperature;BME280_humidity;BME280_pressure;Samples;Min_cycle;Max_cycle;Signal;HPM_P1;HPM_P2
2024/01/25 00:01:10;;;;;;;41.13;7.30;;;7.70;99.90;;;;;;5059545;28;20187;-49
2024/01/25 00:03:36;;;;;;;43.03;6.73;;;7.70;99.90;;;;;;5042855;28;20206;-50
2024/01/25 00:06:02;;;;;;;43.57;8.33;;;7.80;99.90;;;;;;5043481;28;20192;-49
2024/01/25 00:08:27;;;;;;;55.37;8.67;;;7.80;99.90;;;;;;5047525;28;20706;-50
2024/01/25 00:10:53;;;;;;;32.93;7.10;;;7.80;99.90;;;;;;5060473;28;20191;-49
2024/01/25 00:13:18;;;;;;;54.93;8.77;;;7.90;99.90;;;;;;5046147;28;20540;-53
2024/01/25 00:15:44;;;;;;;48.40;8.97;;;7.90;99.90;;;;;;5070489;28;20221;-51
2024/01/25 00:18:10;;;;;;;43.87;8.23;;;7.80;99.90;;;;;;5037064;28;20688;-49
2024/01/25 00:20:35;;;;;;;36.90;7.50;;;7.90;99.90;;;;;;5031172;28;20197;-50
2024/01/25 00:23:01;;;;;;;45.90;8.63;;;7.90;99.90;;;;;;5047429;28;20214;-50
2024/01/25 00:25:27;;;;;;;45.23;8.17;;;7.80;99.90;;;;;;5046513;28;20292;-53
2024/01/25 00:27:52;;;;;;;45.33;8.47;;;7.80;99.90;;;;;;5059758;28;20344;-50
2024/01/25 00:30:18;;;;;;;42.70;8.60;;;7.80;99.90;;;;;;5062341;28;20194;-49
2024/01/25 00:32:43;;;;;;;34.57;7.13;;;7.80;99.90;;;;;;5054164;28;20193;-50
2024/01/25 00:35:10;;;;;;;40.93;8.07;;;7.80;99.90;;;;;;5035493;28;20211;-49
2024/01/25 00:37:39;;;;;;;37.33;7.80;;;7.80;99.90;;;;;;5054898;28;20576;-50
2024/01/25 00:40:05;;;;;;;47.43;7.97;;;7.80;99.90;;;;;;5030573;28;20198;-51
2024/01/25 00:42:33;;;;;;;48.73;6.73;;;7.80;99.90;;;;;;5053283;28;20787;-52
2024/01/25 00:44:59;;;;;;;50.03;7.37;;;7.80;99.90;;;;;;5054924;28;20214;-51
2024/01/25 00:47:25;;;;;;;51.00;8.57;;;7.80;99.90;;;;;;5035733;28;20217;-48
2024/01/25 00:49:51;;;;;;;43.10;8.10;;;7.80;99.90;;;;;;5070523;28;20280;-51
2024/01/25 00:52:16;;;;;;;42.90;8.37;;;7.80;99.90;;;;;;5044293;28;20669;-50
2024/01/25 00:54:42;;;;;;;39.67;6.80;;;7.80;99.90;;;;;;5046637;28;20190;-50
2024/01/25 00:57:08;;;;;;;35.77;7.77;;;7.70;99.90;;;;;;5061245;28;20183;-56
2024/01/25 00:59:34;;;;;;;44.47;8.43;;;7.70;99.90;;;;;;5053832;28;20270;-50
2024/01/25 01:02:04;;;;;;;41.30;7.73;;;7.70;99.90;;;;;;5061762;28;20265;-48
2024/01/25 01:04:29;;;;;;;38.77;7.93;;;7.60;99.90;;;;;;5060830;28;20275;-50
2024/01/25 01:06:55;;;;;;;39.07;7.93;;;7.70;99.90;;;;;;5040017;28;20195;-49
2024/01/25 01:09:21;;;;;;;39.10;7.70;;;7.80;99.90;;;;;;5066614;28;20729;-50
2024/01/25 01:11:47;;;;;;;43.50;8.50;;;7.80;99.90;;;;;;5053500;28;20265;-49
2024/01/25 01:14:12;;;;;;;40.20;9.97;;;7.80;99.90;;;;;;5061041;28;20214;-53
2024/01/25 01:16:38;;;;;;;38.73;8.53;;;7.80;99.90;;;;;;5057614;28;20186;-53
2024/01/25 01:19:07;;;;;;;42.77;7.37;;;7.90;99.90;;;;;;5049741;28;20206;-49
2024/01/25 01:21:34;;;;;;;48.87;8.30;;;7.80;99.90;;;;;;5046461;28;20191;-53
2024/01/25 01:23:59;;;;;;;40.90;7.23;;;7.80;99.90;;;;;;5046390;28;20337;-51
2024/01/25 01:26:25;;;;;;;36.33;7.57;;;7.80;99.90;;;;;;5050521;28;20242;-49
2024/01/25 01:28:50;;;;;;;37.83;6.80;;;7.80;99.90;;;;;;5053174;28;20300;-52
2024/01/25 01:31:16;;;;;;;35.40;6.83;;;7.80;99.90;;;;;;5051035;28;20277;-56
2024/01/25 01:33:41;;;;;;;39.00;7.57;;;7.80;99.90;;;;;;5029978;28;20266;-50
2024/01/25 01:36:07;;;;;;;41.03;7.63;;;7.80;99.90;;;;;;5045812;28;20187;-49
2024/01/25 01:38:32;;;;;;;39.60;7.33;;;7.90;99.90;;;;;;5041482;28;20591;-51
2024/01/25 01:40:58;;;;;;;37.97;6.90;;;7.90;99.90;;;;;;5065494;28;20666;-53
2024/01/25 01:43:24;;;;;;;34.93;6.43;;;7.90;99.90;;;;;;5057161;28;20215;-53
2024/01/25 01:45:50;;;;;;;41.50;7.53;;;7.90;99.90;;;;;;5029518;28;20233;-51
2024/01/25 01:48:16;;;;;;;35.63;7.43;;;7.80;99.90;;;;;;5048509;28;20199;-51
2024/01/25 01:50:45;;;;;;;52.47;8.53;;;7.80;99.90;;;;;;5053816;28;20178;-54
2024/01/25 01:53:12;;;;;;;53.30;7.73;;;7.80;99.90;;;;;;5061657;28;20194;-50
2024/01/25 01:55:39;;;;;;;37.87;7.53;;;7.80;99.90;;;;;;5044626;28;20314;-50
2024/01/25 01:58:04;;;;;;;44.93;8.07;;;7.80;99.90;;;;;;5029563;28;20207;-52
2024/01/25 02:00:31;;;;;;;44.30;6.67;;;7.80;99.90;;;;;;5043663;28;20185;-50
2024/01/25 02:02:57;;;;;;;44.13;7.70;;;7.70;99.90;;;;;;5069686;28;20191;-51
2024/01/25 02:05:24;;;;;;;44.00;7.67;;;7.70;99.90;;;;;;5048175;28;20878;-53
2024/01/25 02:07:49;;;;;;;48.00;7.63;;;7.80;99.90;;;;;;5046120;28;20214;-50
2024/01/25 02:10:15;;;;;;;36.97;7.20;;;7.80;99.90;;;;;;5046092;28;20179;-50
2024/01/25 02:12:41;;;;;;;47.23;8.33;;;7.80;99.90;;;;;;5054559;28;20170;-52
2024/01/25 02:15:07;;;;;;;36.13;7.27;;;7.70;99.90;;;;;;5069437;28;20213;-51
2024/01/25 02:17:33;;;;;;;44.03;7.53;;;7.80;99.90;;;;;;5052939;28;20213;-52
2024/01/25 02:19:58;;;;;;;;;;;7.80;99.90;;;;;;5068799;28;20653;-51
2024/01/25 02:22:24;;;;;;;;;;;7.70;99.90;;;;;;5074048;28;19962;-52
2024/01/25 02:24:49;;;;;;;;;;;7.70;99.90;;;;;;5053871;28;19913;-53
2024/01/25 02:27:15;;;;;;;;;;;7.70;99.90;;;;;;5043097;28;19970;-53
2024/01/25 02:29:40;;;;;;;;;;;7.70;99.90;;;;;;5069230;28;19908;-52
2024/01/25 02:32:06;;;;;;;;;;;7.70;99.90;;;;;;5053503;28;20379;-53
2024/01/25 02:34:31;;;;;;;;;;;7.70;99.90;;;;;;5045124;28;19931;-54
2024/01/25 02:36:56;;;;;;;;;;;7.70;99.90;;;;;;5059412;28;19966;-50
2024/01/25 02:39:22;;;;;;;;;;;7.70;99.90;;;;;;5064706;28;20367;-53
2024/01/25 02:41:47;;;;;;;;;;;7.70;99.90;;;;;;5041626;28;19913;-53
2024/01/25 02:44:13;;;;;;;;;;;7.70;99.90;;;;;;5052671;28;19970;-54
2024/01/25 02:46:38;;;;;;;;;;;7.70;99.90;;;;;;5041302;28;20382;-51
2024/01/25 02:49:04;;;;;;;;;;;7.60;99.90;;;;;;5065706;28;19912;-50
2024/01/25 02:51:29;;;;;;;;;;;7.60;99.90;;;;;;5064080;28;19913;-53
2024/01/25 02:53:55;;;;;;;;;;;7.60;99.90;;;;;;5039524;28;19909;-52
2024/01/25 02:56:20;;;;;;;;;;;7.60;99.90;;;;;;5070310;28;20008;-53
2024/01/25 02:58:46;;;;;;;;;;;7.50;99.90;;;;;;5067767;28;20330;-53
2024/01/25 03:01:11;;;;;;;;;;;7.40;99.90;;;;;;5044902;28;20605;-52
2024/01/25 03:03:37;;;;;;;;;;;7.50;99.90;;;;;;5048789;28;19936;-53
2024/01/25 03:06:02;;;;;;;;;;;7.40;99.90;;;;;;5046949;28;19991;-55
2024/01/25 03:08:28;;;;;;;;;;;7.50;99.90;;;;;;5053323;28;19912;-51
2024/01/25 03:10:53;;;;;;;;;;;7.50;99.90;;;;;;5050621;28;19916;-50
2024/01/25 03:13:19;;;;;;;;;;;7.50;99.90;;;;;;5061657;28;20280;-50
2024/01/25 03:15:44;;;;;;;;;;;7.50;99.90;;;;;;5041700;28;20390;-50
2024/01/25 03:18:10;;;;;;;;;;;7.40;99.90;;;;;;5055911;28;19971;-55
2024/01/25 03:20:36;;;;;;;;;;;7.50;99.90;;;;;;5072575;28;19919;-53
2024/01/25 03:23:02;;;;;;;;;;;7.40;99.90;;;;;;5041609;28;19913;-51
2024/01/25 03:25:28;;;;;;;;;;;7.40;99.90;;;;;;5045044;28;19990;-53
2024/01/25 03:27:53;;;;;;;;;;;7.30;99.90;;;;;;5065479;28;19912;-50
2024/01/25 03:30:19;;;;;;;;;;;7.40;99.90;;;;;;5061780;28;20420;-53
2024/01/25 03:32:45;;;;;;;;;;;7.30;99.90;;;;;;5054600;28;19909;-52
2024/01/25 03:35:11;;;;;;;;;;;7.30;99.90;;;;;;5048217;28;20347;-53
2024/01/25 03:37:36;;;;;;;;;;;7.30;99.90;;;;;;5036047;28;19908;-52
2024/01/25 03:40:03;;;;;;;;;;;7.30;99.90;;;;;;5067856;28;19913;-50
2024/01/25 03:42:28;;;;;;;;;;;7.20;99.90;;;;;;5052684;28;19913;-53
2024/01/25 03:44:54;;;;;;;;;;;7.20;99.90;;;;;;5049797;28;19931;-50
2024/01/25 03:47:19;;;;;;;;;;;7.20;99.90;;;;;;5053857;28;19948;-50
2024/01/25 03:49:45;;;;;;;;;;;7.10;99.90;;;;;;5056850;28;20364;-54
2024/01/25 03:52:10;;;;;;;;;;;7.10;99.90;;;;;;5055264;28;19947;-54
2024/01/25 03:54:36;;;;;;;;;;;7.10;99.90;;;;;;5056569;28;19933;-51
2024/01/25 03:57:01;;;;;;;;;;;7.00;99.90;;;;;;5046703;28;20035;-50
2024/01/25 03:59:27;;;;;;;;;;;7.10;99.90;;;;;;5062440;28;19909;-55
2024/01/25 04:01:52;;;;;;;;;;;7.00;99.90;;;;;;5055326;28;19936;-51
2024/01/25 04:04:18;;;;;;;;;;;7.00;99.90;;;;;;5044609;28;20003;-50
2024/01/25 04:06:45;;;;;;;;;;;7.00;99.90;;;;;;5052142;28;20300;-51
2024/01/25 04:09:11;;;;;;;;;;;7.00;99.90;;;;;;5034922;28;19913;-53
2024/01/25 04:11:37;;;;;;;;;;;7.10;99.90;;;;;;5055348;28;20548;-50
2024/01/25 04:14:02;;;;;;;;;;;7.00;99.90;;;;;;5038409;28;20391;-51
2024/01/25 04:16:28;;;;;;;;;;;7.00;99.90;;;;;;5053441;28;19962;-54
2024/01/25 04:18:53;;;;;;;;;;;6.90;99.90;;;;;;5043132;28;19913;-51
2024/01/25 04:21:19;;;;;;;;;;;6.90;99.90;;;;;;5056246;28;20006;-50
2024/01/25 04:23:44;;;;;;;;;;;6.90;99.90;;;;;;5048887;28;19916;-50
2024/01/25 04:26:10;;;;;;;;;;;6.80;99.90;;;;;;5054741;28;19962;-53
2024/01/25 04:28:35;;;;;;;;;;;6.80;99.90;;;;;;5064511;28;19916;-52
2024/01/25 04:31:01;;;;;;;;;;;6.80;99.90;;;;;;5047941;28;19932;-52
2024/01/25 04:33:27;;;;;;;;;;;6.70;99.90;;;;;;5044006;28;19967;-53
2024/01/25 04:35:52;;;;;;;;;;;6.70;99.90;;;;;;5070928;28;19912;-53
2024/01/25 04:38:18;;;;;;;;;;;6.60;99.90;;;;;;5043893;28;20646;-50
2024/01/25 04:40:43;;;;;;;;;;;6.60;99.90;;;;;;5034099;28;20392;-52
2024/01/25 04:43:09;;;;;;;;;;;6.60;99.90;;;;;;5043019;28;19921;-50
2024/01/25 04:45:34;;;;;;;;;;;6.70;99.90;;;;;;5044961;28;19951;-50
2024/01/25 04:48:00;;;;;;;;;;;6.70;99.90;;;;;;5048978;28;19942;-51
2024/01/25 04:50:25;;;;;;;;;;;6.80;99.90;;;;;;5057697;28;19919;-49
2024/01/25 04:52:51;;;;;;;;;;;6.80;99.90;;;;;;5037023;28;19920;-49
2024/01/25 04:55:16;;;;;;;;;;;6.70;99.90;;;;;;5030737;28;19920;-50
2024/01/25 04:57:41;;;;;;;;;;;6.70;99.90;;;;;;5050854;28;19909;-53
2024/01/25 05:00:09;;;;;;;;;;;6.60;99.90;;;;;;5039622;28;19945;-52
2024/01/25 05:02:34;;;;;;;;;;;6.60;99.90;;;;;;5050052;28;19966;-52
2024/01/25 05:05:00;;;;;;;;;;;6.60;99.90;;;;;;5062136;28;19947;-51
2024/01/25 05:07:25;;;;;;;;;;;6.60;99.90;;;;;;5053252;28;19920;-51
2024/01/25 05:09:51;;;;;;;;;;;6.60;99.90;;;;;;5059318;28;19920;-52
2024/01/25 05:12:16;;;;;;;;;;;6.50;99.90;;;;;;5031496;28;20365;-51
2024/01/25 05:14:42;;;;;;;;;;;6.40;99.90;;;;;;5054388;28;19910;-53
2024/01/25 05:17:07;;;;;;;;;;;6.30;99.90;;;;;;5053716;28;19912;-50
2024/01/25 05:19:33;;;;;;;;;;;6.30;99.90;;;;;;5040069;28;20396;-50
2024/01/25 05:21:58;;;;;;;;;;;6.20;99.90;;;;;;5056775;28;19912;-54
2024/01/25 05:24:24;;;;;;;;;;;6.20;99.90;;;;;;5058171;28;19916;-52
2024/01/25 05:26:49;;;;;;;;;;;6.00;99.90;;;;;;5048569;28;19912;-51
2024/01/25 05:29:16;;;;;;;;;;;6.00;99.90;;;;;;5043815;28;20295;-52
2024/01/25 05:31:41;;;;;;;;;;;5.90;99.90;;;;;;5047372;28;20334;-52
2024/01/25 05:34:07;;;;;;;;;;;5.80;99.90;;;;;;5045801;28;19909;-52
2024/01/25 05:36:33;;;;;;;;;;;5.70;99.90;;;;;;5026041;28;19962;-52
2024/01/25 05:38:58;;;;;;;;;;;5.70;99.90;;;;;;5057057;28;19913;-52
2024/01/25 05:41:24;;;;;;;;;;;5.80;99.90;;;;;;5056474;28;19908;-49
2024/01/25 05:43:49;;;;;;;;;;;5.80;99.90;;;;;;5052667;28;20487;-50
2024/01/25 05:46:15;;;;;;;;;;;5.60;99.90;;;;;;5038456;28;19916;-54
2024/01/25 05:48:40;;;;;;;;;;;5.60;99.90;;;;;;5053332;28;19912;-50
2024/01/25 05:51:06;;;;;;;;;;;5.50;99.90;;;;;;5062388;28;19913;-52
2024/01/25 05:53:31;;;;;;;;;;;5.60;99.90;;;;;;5049637;28;19936;-52
2024/01/25 05:55:57;;;;;;;;;;;5.60;99.90;;;;;;5043010;28;19916;-53
2024/01/25 05:58:22;;;;;;;;;;;5.70;99.90;;;;;;5046218;28;19934;-51
2024/01/25 06:00:48;;;;;;;;;;;5.60;99.90;;;;;;5029880;28;20365;-53
2024/01/25 06:03:13;;;;;;;;;;;5.60;99.90;;;;;;5055053;28;20283;-54
2024/01/25 06:05:39;;;;;;;;;;;5.60;99.90;;;;;;5053562;28;19956;-54
2024/01/25 06:08:04;;;;;;;;;;;5.70;99.90;;;;;;5052436;28;19913;-50
2024/01/25 06:10:30;;;;;;;;;;;5.80;99.90;;;;;;5056260;28;19908;-50
2024/01/25 06:12:55;;;;;;;;;;;5.80;99.90;;;;;;5035807;28;20033;-50
2024/01/25 06:15:21;;;;;;;;;;;5.80;99.90;;;;;;5050194;28;19948;-50
2024/01/25 06:17:46;;;;;;;;;;;5.80;99.90;;;;;;5053402;28;19916;-54
2024/01/25 06:20:12;;;;;;;;;;;5.80;99.90;;;;;;5061281;28;20068;-57
2024/01/25 06:22:37;;;;;;;;;;;5.90;99.90;;;;;;5039379;28;19932;-51
2024/01/25 06:25:06;;;;;;;;;;;6.00;99.90;;;;;;5044541;28;19916;-49
2024/01/25 06:27:32;;;;;;;;;;;6.00;99.90;;;;;;5057303;28;19924;-51
2024/01/25 06:29:57;;;;;;;;;;;6.00;99.90;;;;;;5049517;28;20283;-53
2024/01/25 06:32:23;;;;;;;;;;;5.90;99.90;;;;;;5047738;28;19995;-51
2024/01/25 06:34:48;;;;;;;;;;;5.90;99.90;;;;;;5039588;28;19919;-51
2024/01/25 06:37:15;;;;;;;;;;;5.90;99.90;;;;;;5043961;28;19909;-53
2024/01/25 06:39:41;;;;;;;;;;;5.80;99.90;;;;;;5065425;28;20446;-54
2024/01/25 06:42:07;;;;;;;;;;;5.70;99.90;;;;;;5056810;28;20234;-53
2024/01/25 06:44:32;;;;;;;;;;;5.60;99.90;;;;;;5047156;28;20405;-52
2024/01/25 06:46:57;;;;;;;;;;;5.60;99.90;;;;;;5049422;28;19912;-54
2024/01/25 06:49:23;;;;;;;;;;;5.40;99.90;;;;;;5034725;28;19905;-54
2024/01/25 06:51:48;;;;;;;;;;;5.40;99.90;;;;;;5049223;28;20440;-52
2024/01/25 06:54:14;;;;;;;;;;;5.30;99.90;;;;;;5049225;28;19916;-55
2024/01/25 06:56:39;;;;;;;;;;;5.20;99.90;;;;;;5053324;28;19909;-50
2024/01/25 06:59:05;;;;;;;;;;;5.10;99.90;;;;;;5036526;28;19913;-49
2024/01/25 07:01:30;;;;;;;;;;;5.10;99.90;;;;;;5051654;28;19920;-51
2024/01/25 07:03:56;;;;;;;;;;;5.20;99.90;;;;;;5042731;28;20003;-54
2024/01/25 07:06:22;;;;;;;;;;;5.30;99.90;;;;;;5043384;28;19912;-51
2024/01/25 07:08:47;;;;;;;;;;;5.30;99.90;;;;;;5046565;28;20364;-53
2024/01/25 07:11:13;;;;;;;;;;;5.40;99.90;;;;;;5057585;28;20322;-53
2024/01/25 07:13:38;;;;;;;;;;;5.40;99.90;;;;;;5040073;28;20387;-56
2024/01/25 07:16:04;;;;;;;;;;;5.40;99.90;;;;;;5064473;28;19985;-54
2024/01/25 07:18:30;;;;;;;;;;;5.50;99.90;;;;;;5053856;28;19996;-49
2024/01/25 07:20:55;;;;;;;;;;;5.50;99.90;;;;;;5060216;28;19976;-50
2024/01/25 07:23:21;;;;;;;;;;;5.40;99.90;;;;;;5032638;28;20376;-51
2024/01/25 07:25:46;;;;;;;;;;;5.40;99.90;;;;;;5064019;28;19918;-53
2024/01/25 07:28:12;;;;;;;;;;;5.40;99.90;;;;;;5062928;28;19912;-53
2024/01/25 07:30:37;;;;;;;;;;;5.50;99.90;;;;;;5042775;28;19913;-51
2024/01/25 07:33:03;;;;;;;;;;;5.50;99.90;;;;;;5042686;28;20380;-54
2024/01/25 07:35:28;;;;;;;;;;;5.50;99.90;;;;;;5040341;28;19909;-52
2024/01/25 07:37:54;;;;;;;;;;;5.40;99.90;;;;;;5039742;28;19913;-50
2024/01/25 07:40:19;;;;;;;;;;;5.50;99.90;;;;;;5041302;28;19913;-51
2024/01/25 07:42:46;;;;;;;;;;;5.60;99.90;;;;;;5045929;28;20309;-53
2024/01/25 07:45:13;;;;;;;;;;;5.50;99.90;;;;;;5047211;28;19917;-56
2024/01/25 07:47:41;;;;;;;;;;;5.70;99.90;;;;;;5067719;28;19916;-51
2024/01/25 07:50:06;;;;;;;;;;;5.80;99.90;;;;;;5035736;28;19916;-53
2024/01/25 07:52:32;;;;;;;;;;;5.80;99.90;;;;;;5058511;28;20372;-51
2024/01/25 07:54:57;;;;;;;;;;;5.90;99.90;;;;;;5042799;28;19909;-51
2024/01/25 07:57:23;;;;;;;;;;;6.00;99.90;;;;;;5067011;28;19965;-49
2024/01/25 07:59:48;;;;;;;;;;;6.00;99.90;;;;;;5064085;28;20436;-52
2024/01/25 08:02:14;;;;;;;;;;;6.10;99.90;;;;;;5062431;28;19959;-54
2024/01/25 08:04:39;;;;;;;;;;;6.10;99.90;;;;;;5054399;28;20011;-51
2024/01/25 08:07:05;;;;;;;;;;;6.20;99.90;;;;;;5046431;28;20284;-51
2024/01/25 08:09:30;;;;;;;;;;;6.20;99.90;;;;;;5034188;28;19980;-51
2024/01/25 08:11:55;;;;;;;;;;;6.30;99.90;;;;;;5059487;28;19923;-54
2024/01/25 08:14:21;;;;;;;;;;;6.40;99.90;;;;;;5023039;28;19912;-53
2024/01/25 08:16:46;;;;;;;;;;;6.50;99.90;;;;;;5034998;28;20359;-51
2024/01/25 08:19:12;;;;;;;;;;;6.50;99.90;;;;;;5042616;28;19909;-54
2024/01/25 08:21:37;;;;;;;;;;;6.50;99.90;;;;;;5042229;28;20303;-53
2024/01/25 08:24:04;;;;;;;;;;;6.50;99.90;;;;;;5057382;28;19916;-55
2024/01/25 08:26:29;;;;;;;;;;;6.60;99.90;;;;;;5059495;28;19913;-56
2024/01/25 08:28:55;;;;;;;;;;;6.70;99.90;;;;;;5036586;28;20434;-55
2024/01/25 08:31:20;;;;;;;;;;;6.80;99.90;;;;;;5048568;28;19917;-53
2024/01/25 08:33:47;;;;;;;;;;;6.80;99.90;;;;;;5045217;28;19913;-52
2024/01/25 08:36:18;;;;;;;;;;;6.90;99.90;;;;;;5054120;28;20338;-52
2024/01/25 08:38:44;;;;;;;;;;;6.90;99.90;;;;;;5061911;28;19912;-52
2024/01/25 08:41:11;;;;;;;;;;;6.90;99.90;;;;;;5046855;28;19917;-54
2024/01/25 08:43:36;;;;;;;;;;;6.90;99.90;;;;;;5063103;28;20007;-51
2024/01/25 08:46:02;;;;;;;;;;;6.90;99.90;;;;;;5044395;28;19999;-51
2024/01/25 08:48:27;;;;;;;;;;;7.00;99.90;;;;;;5068175;28;19919;-53
2024/01/25 08:50:54;;;;;;;;;;;7.00;99.90;;;;;;5056317;28;19951;-53
2024/01/25 08:53:22;;;;;;;;;;;7.10;99.90;;;;;;5059128;28;19970;-55
2024/01/25 08:55:48;;;;;;;;;;;7.10;99.90;;;;;;5058994;28;20041;-56
2024/01/25 08:58:13;;;;;;;;;;;7.10;99.90;;;;;;5028798;28;20361;-52
2024/01/25 09:00:39;;;;;;;;;;;7.10;99.90;;;;;;5036427;28;20372;-57
2024/01/25 09:03:04;;;;;;;;;;;7.10;99.90;;;;;;5039220;28;19949;-55
2024/01/25 09:05:31;;;;;;;;;;;7.20;99.90;;;;;;5047720;28;19940;-54
2024/01/25 09:07:56;;;;;;;;;;;7.20;99.90;;;;;;5063453;28;20270;-53
2024/01/25 09:10:22;;;;;;;;;;;7.10;99.90;;;;;;5068274;28;20007;-51
2024/01/25 09:12:47;;;;;;;;;;;7.10;99.90;;;;;;5054582;28;19912;-55
2024/01/25 09:15:13;;;;;;;;;;;7.20;99.90;;;;;;5052450;28;19944;-56
2024/01/25 09:17:39;;;;;;;;;;;7.30;99.90;;;;;;5052747;28;19908;-57
2024/01/25 09:20:06;;;;;;;;;;;7.30;99.90;;;;;;5047741;28;19911;-51
2024/01/25 09:22:31;;;;;;;;;;;7.40;99.90;;;;;;5058895;28;19909;-52
2024/01/25 09:24:57;;;;;;;;;;;7.40;99.90;;;;;;5057114;28;19985;-55
2024/01/25 09:27:22;;;;;;;;;;;7.40;99.90;;;;;;5039095;28;20004;-55
2024/01/25 09:29:48;;;;;;;;;;;7.30;99.90;;;;;;5060356;28;19913;-54
2024/01/25 09:32:13;;;;;;;;;;;7.30;99.90;;;;;;5044127;28;19937;-51
2024/01/25 09:34:39;;;;;;;;;;;7.20;99.90;;;;;;5057438;28;19912;-52
2024/01/25 09:37:04;;;;;;;;;;;7.20;99.90;;;;;;5063756;28;19912;-53
2024/01/25 09:39:31;;;;;;;;;;;7.20;99.90;;;;;;5033857;28;19952;-53
2024/01/25 09:41:56;;;;;;;;;;;7.30;99.90;;;;;;5046733;28;19916;-52
2024/01/25 09:44:22;;;;;;;;;;;7.50;99.90;;;;;;5051380;28;19921;-51
2024/01/25 09:46:51;;;;;;;;;;;7.50;99.90;;;;;;5051064;28;21282;-54
2024/01/25 09:49:16;;;;;;;;;;;7.70;99.90;;;;;;5053934;28;19919;-53
2024/01/25 09:51:42;;;;;;;;;;;7.70;99.90;;;;;;5040793;28;20003;-52
2024/01/25 09:54:08;;;;;;;;;;;7.70;99.90;;;;;;5064765;28;20313;-54
2024/01/25 09:56:34;;;;;;;;;;;7.80;99.90;;;;;;5049077;28;20003;-53
2024/01/25 09:59:00;;;;;;;;;;;7.80;99.90;;;;;;5054316;28;20331;-55
2024/01/25 10:01:26;;;;;;;;;;;7.90;99.90;;;;;;5039100;28;20269;-55
2024/01/25 10:03:51;;;;;;;;;;;8.00;99.90;;;;;;5035543;28;20238;-51
2024/01/25 10:06:17;;;;;;;;;;;7.90;99.90;;;;;;5045351;28;19916;-52
2024/01/25 10:08:43;;;;;;;;;;;7.90;99.90;;;;;;5056622;28;20345;-51
2024/01/25 10:11:08;;;;;;;;;;;8.00;99.90;;;;;;5049853;28;19952;-53
2024/01/25 10:14:00;;;;;;;;;;;8.00;99.90;;;;;;5067153;28;19942;-54
2024/01/25 10:16:26;;;;;;;;;;;8.10;99.90;;;;;;5036285;28;19939;-53
2024/01/25 10:18:52;;;;;;;;;;;8.30;99.90;;;;;;5033763;28;19917;-51
2024/01/25 10:21:18;;;;;;;;;;;8.30;99.90;;;;;;5056529;28;19921;-52
2024/01/25 10:23:44;;;;;;;;;;;8.30;99.90;;;;;;5040994;28;20286;-55
2024/01/25 10:26:09;;;;;;;;;;;8.20;99.90;;;;;;5048545;28;19952;-55
2024/01/25 10:28:35;;;;;;;;;;;8.30;99.90;;;;;;5042385;28;19959;-55
2024/01/25 10:31:01;;;;;;;;;;;8.20;99.90;;;;;;5039795;28;20438;-52
2024/01/25 10:33:27;;;;;;;;;;;8.30;99.90;;;;;;5063102;28;19931;-55
2024/01/25 10:36:01;;;;;;;;;;;8.40;99.90;;;;;;5051074;28;19909;-51
2024/01/25 10:38:29;;;;;;;;;;;8.40;99.90;;;;;;5050080;28;19917;-52
2024/01/25 10:40:54;;;;;;;;;;;8.40;99.90;;;;;;5049869;28;19913;-52
2024/01/25 10:43:20;;;;;;;;;;;8.60;99.90;;;;;;5063283;28;19921;-52
2024/01/25 10:45:46;;;;;;;;;;;8.70;99.90;;;;;;5051813;28;19917;-53
2024/01/25 10:48:12;;;;;;;;;;;8.80;99.90;;;;;;5052845;28;20220;-52
2024/01/25 10:50:39;;;;;;;;;;;9.10;99.90;;;;;;5046587;28;19912;-52
2024/01/25 10:53:06;;;;;;;;;;;9.20;99.90;;;;;;5042421;28;20284;-55
2024/01/25 10:55:31;;;;;;;;;;;9.10;99.90;;;;;;5039836;28;19917;-52
2024/01/25 10:57:57;;;;;;;;;;;9.10;99.90;;;;;;5046231;28;19962;-54
2024/01/25 11:00:22;;;;;;;;;;;9.20;99.90;;;;;;5024905;28;19919;-53
2024/01/25 11:02:49;;;;;;;;;;;9.20;99.90;;;;;;5053339;28;19917;-51
2024/01/25 11:05:15;;;;;;;;;;;9.20;99.90;;;;;;5060041;28;20438;-53
2024/01/25 11:07:42;;;;;;;;;;;9.10;99.90;;;;;;5060370;28;19913;-51
2024/01/25 11:10:11;;;;;;;;;;;9.10;99.90;;;;;;5053877;28;19959;-55
2024/01/25 11:12:46;;;;;;;;;;;9.20;99.90;;;;;;5065088;28;19967;-54
2024/01/25 11:15:19;;;;;;;;;;;9.00;99.90;;;;;;5060329;28;20430;-50
2024/01/25 11:17:50;;;;;;;;;;;9.10;99.90;;;;;;5037018;28;20007;-52
2024/01/25 11:20:16;;;;;;;;;;;9.10;99.90;;;;;;5045650;28;19948;-52
2024/01/25 11:22:44;;;;;;;;;;;9.10;99.90;;;;;;5049903;28;19917;-55
2024/01/25 11:25:28;;;;;;;;;;;9.10;99.90;;;;;;5062420;28;19916;-52
2024/01/25 11:27:54;;;;;;;;;;;9.10;99.90;;;;;;5066224;28;19920;-52
2024/01/25 11:30:20;;;;;;;;;;;9.10;99.90;;;;;;5067295;28;20019;-53
2024/01/25 11:32:46;;;;;;;;;;;9.00;99.90;;;;;;5048142;28;19987;-52
2024/01/25 11:35:16;;;;;;;;;;;9.00;99.90;;;;;;5070852;28;20327;-54
2024/01/25 11:37:48;;;;;;;;;;;9.10;99.90;;;;;;5051751;28;20319;-50
2024/01/25 11:40:14;;;;;;;;;;;9.10;99.90;;;;;;5059752;28;20007;-54
2024/01/25 11:42:41;;;;;;;;;;;9.00;99.90;;;;;;5052164;28;19917;-53
2024/01/25 11:45:08;;;;;;;;;;;9.00;99.90;;;;;;5064921;28;19993;-52
2024/01/25 11:47:34;;;;;;;;;;;9.00;99.90;;;;;;5062532;28;19917;-56
2024/01/25 11:49:59;;;;;;;;;;;9.20;99.90;;;;;;5055186;28;19966;-54
2024/01/25 11:52:26;;;;;;;;;;;9.30;99.90;;;;;;5044122;28;19958;-50
2024/01/25 11:54:51;;;;;;;;;;;9.30;99.90;;;;;;5062809;28;19927;-52
2024/01/25 11:57:17;;;;;;;;;;;9.30;99.90;;;;;;5059086;28;19917;-54
2024/01/25 11:59:45;;;;;;;;;;;9.20;99.90;;;;;;5063730;28;20071;-51
2024/01/25 12:02:12;;;;;;;;;;;9.20;99.90;;;;;;5029526;28;19921;-52
2024/01/25 12:04:37;;;;;;;;;;;9.20;99.90;;;;;;5067240;28;20019;-54
2024/01/25 12:07:03;;;;;;;;;;;9.20;99.90;;;;;;5026225;28;20007;-52
2024/01/25 12:09:28;;;;;;;;;;;9.20;99.90;;;;;;5047525;28;20369;-56
2024/01/25 12:11:54;;;;;;;;;;;9.30;99.90;;;;;;5052510;28;20269;-54
2024/01/25 12:14:20;;;;;;;;;;;9.30;99.90;;;;;;5033986;28;19940;-53
2024/01/25 12:16:45;;;;;;;;;;;9.30;99.90;;;;;;5050626;28;19917;-52
2024/01/25 12:19:11;;;;;;;;;;;9.40;99.90;;;;;;5043101;28;19913;-52
2024/01/25 12:21:36;;;;;;;;;;;9.30;99.90;;;;;;5047064;28;19917;-52
2024/01/25 12:24:02;;;;;;;;;;;9.40;99.90;;;;;;5059684;28;20023;-51
2024/01/25 12:26:28;;;;;;;;;;;9.40;99.90;;;;;;5069657;28;19912;-53
2024/01/25 12:28:53;;;;;;;;;;;9.50;99.90;;;;;;5060473;28;19913;-53
2024/01/25 12:31:18;;;;;;;;;;;9.50;99.90;;;;;;5055405;28;20010;-51
2024/01/25 12:33:44;;;;;;;;;;;9.40;99.90;;;;;;5046598;28;19917;-50
2024/01/25 12:36:09;;;;;;;;;;;9.60;99.90;;;;;;5060718;28;19919;-50
2024/01/25 12:38:35;;;;;;;;;;;9.70;99.90;;;;;;5070227;28;19920;-53
2024/01/25 12:41:01;;;;;;;;;;;9.90;99.90;;;;;;5041676;28;20007;-52
2024/01/25 12:43:26;;;;;;;;;;;10.00;99.90;;;;;;5037968;28;19928;-50
2024/01/25 12:45:52;;;;;;;;;;;10.20;99.90;;;;;;5062688;28;20007;-54
2024/01/25 12:48:17;;;;;;;;;;;10.20;99.90;;;;;;5027164;28;20179;-55
2024/01/25 12:50:43;;;;;;;;;;;10.30;99.90;;;;;;5070208;28;19920;-52
2024/01/25 12:53:10;;;;;;;;;;;10.40;99.90;;;;;;5039400;28;19917;-52
2024/01/25 12:55:36;;;;;;;;;;;10.50;99.90;;;;;;5065090;28;19962;-53
2024/01/25 12:58:01;;;;;;;;;;;10.50;99.90;;;;;;5044127;28;19948;-56
2024/01/25 13:00:27;;;;;;;;;;;10.40;99.90;;;;;;5053636;28;19920;-54
2024/01/25 13:02:54;;;;;;;;;;;10.30;99.90;;;;;;5047892;28;20276;-54
2024/01/25 13:05:20;;;;;;;;;;;10.30;99.90;;;;;;5034281;28;20007;-56
2024/01/25 13:07:45;;;;;;;;;;;10.40;99.90;;;;;;5049715;28;20015;-53
2024/01/25 13:10:11;;;;;;;;;;;10.20;99.90;;;;;;5041637;28;19912;-51
2024/01/25 13:12:37;;;;;;;;;;;10.30;99.90;;;;;;5041371;28;19971;-53
2024/01/25 13:15:03;;;;;;;;;;;10.20;99.90;;;;;;5048796;28;19913;-55
2024/01/25 13:17:28;;;;;;;;;;;10.20;99.90;;;;;;5048464;28;19923;-51
2024/01/25 13:19:54;;;;;;;;;;;10.20;99.90;;;;;;5069535;28;20410;-51
2024/01/25 13:22:24;;;;;;;;;;;10.20;99.90;;;;;;5034475;28;19912;-51
2024/01/25 13:24:50;;;;;;;;;;;10.20;99.90;;;;;;5050539;28;19920;-53
2024/01/25 13:27:15;;;;;;;;;;;9.90;99.90;;;;;;5064781;28;19988;-55
2024/01/25 13:29:41;;;;;;;;;;;10.00;99.90;;;;;;5044617;28;19917;-54
2024/01/25 13:32:07;;;;;;;;;;;9.90;99.90;;;;;;5047644;28;19917;-53
2024/01/25 13:34:33;;;;;;;;;;;9.80;99.90;;;;;;5041784;28;19913;-54
2024/01/25 13:36:58;;;;;;;;;;;9.90;99.90;;;;;;5053022;28;19932;-53
2024/01/25 13:39:24;;;;;;;;;;;10.00;99.90;;;;;;5063998;28;19963;-55
2024/01/25 13:41:50;;;;;;;;;;;10.00;99.90;;;;;;5064846;28;19921;-52
2024/01/25 13:44:15;;;;;;;;;;;10.00;99.90;;;;;;5057492;28;19928;-51
2024/01/25 13:46:41;;;;;;;;;;;10.00;99.90;;;;;;5061669;28;19917;-51
2024/01/25 13:49:06;;;;;;;;;;;10.00;99.90;;;;;;5046280;28;19925;-53
2024/01/25 13:51:31;;;;;;;;;;;10.00;99.90;;;;;;5035108;28;19943;-53
2024/01/25 13:53:57;;;;;;;;;;;10.00;99.90;;;;;;5043496;28;20420;-52
2024/01/25 13:56:22;;;;;;;;;;;10.00;99.90;;;;;;5043714;28;19917;-55
2024/01/25 13:58:48;;;;;;;;;;;10.00;99.90;;;;;;5042859;28;19921;-56
2024/01/25 14:01:13;;;;;;;;;;;10.10;99.90;;;;;;5042912;28;19971;-54